Time;durP1;ratioP1;P1;durP2;ratioP2;P2;SDS_P1;SDS_P2;PMS_P1;PMS_P2;Temp;Humidity;BMP_temperature;BMP_pressure;BME280_temperature;BME280_humidity;BME280_pressure;Samples;Min_cycle;Max_cycle;Signal;HPM_P1;HPM_P2
2023/10/17 00:00:13;;;;;;;;;;;6.40;82.90;;;;;;5046076;28;20303;-70
2023/10/17 00:02:46;;;;;;;;;;;6.40;82.70;;;;;;5054488;28;21064;-71
2023/10/17 00:05:20;;;;;;;;;;;6.40;82.70;;;;;;5054140;28;20512;-69
2023/10/17 00:07:58;;;;;;;;;;;6.40;82.80;;;;;;5054876;28;20398;-69
2023/10/17 00:10:35;;;;;;;;;;;6.30;82.90;;;;;;5049408;28;20316;-70
2023/10/17 00:13:25;;;;;;;;;;;6.30;83.00;;;;;;5050120;28;20931;-69
2023/10/17 00:15:59;;;;;;;;;;;6.30;82.90;;;;;;5050497;28;19929;-70
2023/10/17 00:18:33;;;;;;;;;;;6.30;82.70;;;;;;5046146;28;20426;-68
2023/10/17 00:21:12;;;;;;;;;;;6.30;82.80;;;;;;5058003;28;20394;-67
2023/10/17 00:23:45;;;;;;;;;;;6.20;82.70;;;;;;5048947;28;19932;-63
2023/10/17 00:26:19;;;;;;;;;;;6.20;82.60;;;;;;5053895;28;19931;-61
2023/10/17 00:28:55;;;;;;;;;;;6.20;82.70;;;;;;5054014;28;19978;-63
2023/10/17 00:31:28;;;;;;;;;;;6.20;82.50;;;;;;5038603;28;19925;-62
2023/10/17 00:34:01;;;;;;;;;;;6.20;82.50;;;;;;5057268;28;19951;-62
2023/10/17 00:36:36;;;;;;;;;;;6.20;82.60;;;;;;5023509;28;19935;-63
2023/10/17 00:39:11;;;;;;;;;;;6.10;82.60;;;;;;5051328;28;20013;-62
2023/10/17 00:41:51;;;;;;;;;;;6.10;82.70;;;;;;5053063;28;19925;-61
2023/10/17 00:44:30;;;;;;;;;;;6.10;82.60;;;;;;5051944;28;19925;-63
2023/10/17 00:47:04;;;;;;;;;;;6.10;82.70;;;;;;5050019;28;20174;-62
2023/10/17 00:49:40;;;;;;;;;;;6.10;82.40;;;;;;5056428;28;20296;-62
2023/10/17 00:52:18;;;;;;;;;;;6.10;82.60;;;;;;5049722;28;20421;-62
2023/10/17 00:54:54;;;;;;;;;;;6.00;82.40;;;;;;5035006;28;19933;-62
2023/10/17 00:57:27;;;;;;;;;;;6.00;82.40;;;;;;5045082;28;19959;-62
2023/10/17 01:00:16;;;;;;;;;;;6.00;82.40;;;;;;5051372;28;20388;-62
2023/10/17 01:02:51;;;;;;;;;;;5.90;82.60;;;;;;5053784;28;19924;-63
2023/10/17 01:05:26;;;;;;;;;;;5.90;82.40;;;;;;5057567;28;20391;-62
2023/10/17 01:07:59;;;;;;;;;;;5.90;82.50;;;;;;5037846;28;19925;-62
2023/10/17 01:10:33;;;;;;;;;;;5.90;82.40;;;;;;5058343;28;19929;-64
2023/10/17 01:13:06;;;;;;;;;;;5.90;82.40;;;;;;5056906;28;19936;-61
2023/10/17 01:15:42;;;;;;;;;;;5.80;82.40;;;;;;5058287;28;20384;-62
2023/10/17 01:18:15;;;;;;;;;;;5.80;82.40;;;;;;5051656;28;19931;-62
2023/10/17 01:20:48;;;;;;;;;;;5.80;82.40;;;;;;5053004;28;19929;-63
2023/10/17 01:23:23;;;;;;;;;;;5.70;82.40;;;;;;5054057;28;19932;-63
2023/10/17 01:25:58;;;;;;;;;;;5.70;82.30;;;;;;5063597;28;19924;-63
2023/10/17 01:28:31;;;;;;;;;;;5.70;82.30;;;;;;5051596;28;20441;-62
2023/10/17 01:31:06;;;;;;;;;;;5.60;82.50;;;;;;5052822;28;20386;-63
2023/10/17 01:33:39;;;;;;;;;;;5.60;82.60;;;;;;5058197;28;19959;-63
2023/10/17 01:36:16;;;;;;;;;;;5.60;82.60;;;;;;5054941;28;20296;-70
2023/10/17 01:38:50;;;;;;;;;;;5.60;82.40;;;;;;5049387;28;20421;-72
2023/10/17 01:41:25;;;;;;;;;;;5.70;82.40;;;;;;5056802;28;20025;-71
2023/10/17 01:43:58;;;;;;;;;;;5.70;82.30;;;;;;5057302;28;19933;-70
2023/10/17 01:46:32;;;;;;;;;;;5.70;82.20;;;;;;5056444;28;19943;-72
2023/10/17 01:49:11;;;;;;;;;;;5.60;82.20;;;;;;5040687;28;19924;-70
2023/10/17 01:51:47;;;;;;;;;;;5.60;82.30;;;;;;5057043;28;19929;-71
2023/10/17 01:54:21;;;;;;;;;;;5.50;82.30;;;;;;5055117;28;20388;-71
2023/10/17 01:57:05;;;;;;;;;;;5.50;82.40;;;;;;5054203;28;19935;-72
2023/10/17 01:59:38;;;;;;;;;;;5.40;82.30;;;;;;5037538;28;19925;-70
2023/10/17 02:02:12;;;;;;;;;;;5.40;82.20;;;;;;5030294;28;19955;-71
2023/10/17 02:04:49;;;;;;;;;;;5.40;82.10;;;;;;5038943;28;19982;-70
2023/10/17 02:07:24;;;;;;;;;;;5.40;82.20;;;;;;5059100;28;19929;-72
2023/10/17 02:09:55;;;;;;;;;;;5.40;82.20;;;;;;5032201;28;20034;-71
2023/10/17 02:12:30;;;;;;;;;;;5.30;82.00;;;;;;5061870;28;19931;-71
2023/10/17 02:15:06;;;;;;;;;;;5.30;82.10;;;;;;5053093;28;19932;-71
2023/10/17 02:17:39;;;;;;;;;;;5.30;82.00;;;;;;5054401;28;19928;-71
2023/10/17 02:20:23;;;;;;;;;;;5.30;82.10;;;;;;5059141;28;19947;-71
2023/10/17 02:22:57;;;;;;;;;;;5.30;82.10;;;;;;5057495;28;19925;-71
2023/10/17 02:25:34;;;;;;;;;;;5.30;82.20;;;;;;5058335;28;19929;-70
2023/10/17 02:28:09;;;;;;;;;;;5.20;82.20;;;;;;5048212;28;20403;-71
2023/10/17 02:30:45;;;;;;;;;;;5.30;82.20;;;;;;5036863;28;19940;-71
2023/10/17 02:33:19;;;;;;;;;;;5.20;82.00;;;;;;5057782;28;20368;-70
2023/10/17 02:36:05;;;;;;;;;;;5.20;82.30;;;;;;5046644;28;19936;-70
2023/10/17 02:38:38;;;;;;;;;;;5.20;82.10;;;;;;5050709;28;19932;-72
2023/10/17 02:41:13;;;;;;;;;;;5.10;82.10;;;;;;5020297;28;20308;-70
2023/10/17 02:43:48;;;;;;;;;;;;;;;;;;5049876;28;20050;-67
2023/10/17 02:46:26;;;;;;;;;;;5.00;82.20;;;;;;5056140;28;19959;-68
2023/10/17 02:49:00;;;;;;;;;;;5.00;82.10;;;;;;5048908;28;19928;-69
2023/10/17 02:51:34;;;;;;;;;;;5.00;82.30;;;;;;5056811;28;20372;-70
2023/10/17 02:54:12;;;;;;;;;;;5.10;82.10;;;;;;5048768;28;19928;-69
2023/10/17 02:56:51;;;;;;;;;;;5.10;82.20;;;;;;5041928;28;19939;-70
2023/10/17 02:59:24;;;;;;;;;;;5.10;82.50;;;;;;5035735;28;19929;-69
2023/10/17 03:01:59;;;;;;;;;;;5.00;82.60;;;;;;5054535;28;20356;-69
2023/10/17 03:04:33;;;;;;;;;;;5.00;82.70;;;;;;5055759;28;20015;-70
2023/10/17 03:07:07;;;;;;;;;;;5.00;82.60;;;;;;5057372;28;19924;-69
2023/10/17 03:09:43;;;;;;;;;;;5.00;82.60;;;;;;5061678;28;20014;-69
2023/10/17 03:12:23;;;;;;;;;;;4.90;82.50;;;;;;5060485;28;20392;-68
2023/10/17 03:17:53;;;;;;;;;;;4.80;82.60;;;;;;5036626;28;19974;-68
2023/10/17 03:20:36;;;;;;;;;;;4.90;82.50;;;;;;5024790;28;20349;-69
2023/10/17 03:23:10;;;;;;;;;;;4.90;82.40;;;;;;5054694;28;19931;-69
2023/10/17 03:25:46;;;;;;;;;;;4.90;82.50;;;;;;5061463;28;19939;-68
2023/10/17 03:28:22;;;;;;;;;;;4.90;82.70;;;;;;5059322;28;19998;-68
2023/10/17 03:30:55;;;;;;;;;;;5.00;82.60;;;;;;5026021;28;19936;-69
2023/10/17 03:33:27;;;;;;;;;;;4.90;82.80;;;;;;5042451;28;19932;-69
2023/10/17 03:36:05;;;;;;;;;;;4.90;82.80;;;;;;5059401;28;20015;-68
2023/10/17 03:38:41;;;;;;;;;;;5.00;82.60;;;;;;5041428;28;19947;-69
2023/10/17 03:41:16;;;;;;;;;;;5.00;82.70;;;;;;5058129;28;19968;-69
2023/10/17 03:43:52;;;;;;;;;;;5.00;82.80;;;;;;5058650;28;19929;-70
2023/10/17 03:46:26;;;;;;;;;;;5.00;83.10;;;;;;5058137;28;19933;-68
2023/10/17 03:49:01;;;;;;;;;;;5.00;83.10;;;;;;5059483;28;19929;-67
2023/10/17 03:51:34;;;;;;;;;;;4.90;83.30;;;;;;5058139;28;21516;-69
2023/10/17 03:54:07;;;;;;;;;;;4.90;83.40;;;;;;5056226;28;19928;-70
2023/10/17 03:56:45;;;;;;;;;;;4.90;83.40;;;;;;5058405;28;19951;-72
2023/10/17 03:59:38;;;;;;;;;;;4.90;83.50;;;;;;5058588;28;19932;-70
2023/10/17 04:02:18;;;;;;;;;;;4.90;83.60;;;;;;5057162;28;19932;-70
2023/10/17 04:04:54;;;;;;;;;;;5.00;83.60;;;;;;5055158;28;19992;-70
2023/10/17 04:07:31;;;;;;;;;;;5.00;83.60;;;;;;5058661;28;19924;-71
2023/10/17 04:13:13;;;;;;;;;;;5.10;83.70;;;;;;5059153;28;19931;-70
2023/10/17 04:15:46;;;;;;;;;;;5.10;83.80;;;;;;5054502;28;19971;-70
2023/10/17 04:18:22;;;;;;;;;;;5.20;83.70;;;;;;5053666;28;19939;-70
2023/10/17 04:21:12;;;;;;;;;;;5.20;83.70;;;;;;5042982;28;20273;-71
2023/10/17 04:23:45;;;;;;;;;;;5.10;83.70;;;;;;5034866;28;19968;-70
2023/10/17 04:26:27;;;;;;;;;;;5.10;83.80;;;;;;5050435;28;19929;-70
2023/10/17 04:29:11;;;;;;;;;;;5.10;83.70;;;;;;5059666;28;19956;-71
2023/10/17 04:31:45;;;;;;;;;;;5.10;83.70;;;;;;5060749;28;19924;-71
2023/10/17 04:34:17;;;;;;;;;;;5.10;83.80;;;;;;5059439;28;19955;-71
2023/10/17 04:36:53;;;;;;;;;;;5.00;84.00;;;;;;5060934;28;19956;-71
2023/10/17 04:39:35;;;;;;;;;;;5.00;84.00;;;;;;5063246;28;19925;-71
2023/10/17 04:42:11;;;;;;;;;;;5.00;83.90;;;;;;5060941;28;19929;-71
2023/10/17 04:44:50;;;;;;;;;;;5.10;83.80;;;;;;5061155;28;19933;-70
2023/10/17 04:47:27;;;;;;;;;;;5.10;84.00;;;;;;5061651;28;19935;-70
2023/10/17 04:50:01;;;;;;;;;;;5.00;84.10;;;;;;5062469;28;19924;-70
2023/10/17 04:52:41;;;;;;;;;;;5.10;84.20;;;;;;5065192;28;20002;-71
2023/10/17 04:55:22;;;;;;;;;;;5.20;84.10;;;;;;5061489;28;19924;-72
2023/10/17 04:58:30;;;;;;;;;;;5.10;84.20;;;;;;5061841;28;19929;-72
2023/10/17 05:01:12;;;;;;;;;;;5.10;84.30;;;;;;5062844;28;19925;-70
2023/10/17 05:03:50;;;;;;;;;;;5.20;84.10;;;;;;5057947;28;19929;-70
2023/10/17 05:06:45;;;;;;;;;;;5.20;84.10;;;;;;5048512;28;19932;-71
2023/10/17 06:18:18;;;;;;;;;;;5.20;84.30;;;;;;5007296;28;19932;-67
2023/10/17 06:21:07;;;;;;;;;;;5.20;84.30;;;;;;5046298;28;19978;-66
2023/10/17 06:26:59;;;;;;;;;;;5.20;84.60;;;;;;5053711;28;19935;-67
2023/10/17 06:35:20;;;;;;;;;;;5.30;84.50;;;;;;5055246;28;19925;-67
2023/10/17 06:37:57;;;;;;;;;;;5.30;84.40;;;;;;5058130;28;19932;-68
2023/10/17 06:40:32;;;;;;;;;;;5.30;84.30;;;;;;5058460;28;19939;-65
2023/10/17 06:43:13;;;;;;;;;;;5.40;84.20;;;;;;5058144;28;19935;-67
2023/10/17 06:45:54;;;;;;;;;;;5.40;84.30;;;;;;5056850;28;19931;-67
2023/10/17 06:48:33;;;;;;;;;;;5.30;84.50;;;;;;5054941;28;20015;-67
2023/10/17 06:51:29;;;;;;;;;;;5.50;84.20;;;;;;5058030;28;19956;-67
2023/10/17 06:54:06;;;;;;;;;;;5.50;84.10;;;;;;5060419;28;19929;-65
2023/10/17 06:56:44;;;;;;;;;;;5.50;84.20;;;;;;5056872;28;19931;-67
2023/10/17 06:59:33;;;;;;;;;;;5.50;84.40;;;;;;5057330;28;19932;-68
2023/10/17 07:02:16;;;;;;;;;;;5.60;84.30;;;;;;5053403;28;19925;-67
2023/10/17 07:04:50;;;;;;;;;;;5.70;84.30;;;;;;5050011;28;20371;-66
2023/10/17 07:07:31;;;;;;;;;;;5.70;84.00;;;;;;5048388;28;19932;-66
2023/10/17 07:10:16;;;;;;;;;;;5.70;84.20;;;;;;5057229;28;20056;-66
2023/10/17 07:13:09;;;;;;;;;;;5.70;84.30;;;;;;5036944;28;19924;-68
2023/10/17 07:15:42;;;;;;;;;;;5.70;83.90;;;;;;5055087;28;20799;-67
2023/10/17 07:21:15;;;;;;;;;;;5.80;84.20;;;;;;5057348;28;20404;-70
2023/10/17 07:23:53;;;;;;;;;;;5.80;84.10;;;;;;5053138;28;21472;-72
2023/10/17 07:26:39;;;;;;;;;;;5.80;84.30;;;;;;5029024;28;20300;-70
2023/10/17 07:29:13;;;;;;;;;;;5.80;84.40;;;;;;5055177;28;19940;-70
2023/10/17 07:31:49;;;;;;;;;;;5.90;84.30;;;;;;5051209;28;20372;-70
2023/10/17 07:34:33;;;;;;;;;;;6.00;84.20;;;;;;5047208;28;19935;-70
2023/10/17 07:37:14;;;;;;;;;;;6.00;84.00;;;;;;5051536;28;19930;-71
2023/10/17 07:40:01;;;;;;;;;;;6.10;84.20;;;;;;5058051;28;19932;-70
2023/10/17 07:42:40;;;;;;;;;;;6.10;83.80;;;;;;5059583;28;19932;-70
2023/10/17 07:45:21;;;;;;;;;;;6.10;83.90;;;;;;5056105;28;19924;-71
2023/10/17 07:47:54;;;;;;;;;;;6.10;84.30;;;;;;5055003;28;19937;-70
2023/10/17 07:50:27;;;;;;;;;;;6.20;84.10;;;;;;5056941;28;19964;-70
2023/10/17 07:52:59;;;;;;;;;;;6.20;84.20;;;;;;5058927;28;19929;-70
2023/10/17 07:55:37;;;;;;;;;;;6.20;84.30;;;;;;5056369;28;19934;-71
2023/10/17 07:58:17;;;;;;;;;;;6.10;84.60;;;;;;5055003;28;19933;-70
2023/10/17 08:00:51;;;;;;;;;;;6.20;84.50;;;;;;5055571;28;19937;-70
2023/10/17 08:03:27;;;;;;;;;;;6.40;84.40;;;;;;5055710;28;20410;-71
2023/10/17 08:06:05;;;;;;;;;;;6.30;84.10;;;;;;5057098;28;19953;-71
2023/10/17 08:08:42;;;;;;;;;;;6.30;84.30;;;;;;5059746;28;20040;-69
2023/10/17 08:11:31;;;;;;;;;;;6.50;84.30;;;;;;5056862;28;19925;-70
2023/10/17 08:14:09;;;;;;;;;;;6.60;84.00;;;;;;5057305;28;20341;-71
2023/10/17 08:16:43;;;;;;;;;;;6.70;83.80;;;;;;5058662;28;19985;-70
2023/10/17 08:19:21;;;;;;;;;;;6.70;83.40;;;;;;5052536;28;19931;-70
2023/10/17 08:22:10;;;;;;;;;;;6.60;83.70;;;;;;5055281;28;20387;-71
2023/10/17 08:25:00;;;;;;;;;;;6.70;84.10;;;;;;5055464;28;20404;-69
2023/10/17 08:27:46;;;;;;;;;;;6.70;84.20;;;;;;5054370;28;20006;-69
2023/10/17 08:30:23;;;;;;;;;;;6.90;83.90;;;;;;5057250;28;19932;-69
2023/10/17 08:33:11;;;;;;;;;;;7.00;83.60;;;;;;5057725;28;19999;-71
2023/10/17 08:35:51;;;;;;;;;;;6.90;83.60;;;;;;5023538;28;19935;-66
2023/10/17 08:38:23;;;;;;;;;;;6.90;84.30;;;;;;5058240;28;19982;-66
2023/10/17 08:40:56;;;;;;;;;;;6.90;84.40;;;;;;5058158;28;19929;-66
2023/10/17 08:43:32;;;;;;;;;;;7.00;84.40;;;;;;5054296;28;19925;-67
2023/10/17 08:46:10;;;;;;;;;;;7.20;84.00;;;;;;5053044;28;19929;-65
2023/10/17 08:48:44;;;;;;;;;;;7.30;83.80;;;;;;5054467;28;19925;-67
2023/10/17 08:51:18;;;;;;;;;;;7.40;83.40;;;;;;5056939;28;20005;-67
2023/10/17 08:53:52;;;;;;;;;;;7.20;83.50;;;;;;5057692;28;19972;-67
2023/10/17 08:56:28;;;;;;;;;;;7.40;83.60;;;;;;5054892;28;19932;-67
2023/10/17 08:59:04;;;;;;;;;;;7.60;83.40;;;;;;5053037;28;20383;-66
2023/10/17 09:01:37;;;;;;;;;;;7.60;83.20;;;;;;5057916;28;19932;-66
2023/10/17 09:04:13;;;;;;;;;;;7.70;82.70;;;;;;5052506;28;20018;-66
2023/10/17 09:06:55;;;;;;;;;;;7.70;83.00;;;;;;5041266;28;20131;-66
2023/10/17 09:09:33;;;;;;;;;;;7.70;83.20;;;;;;5033732;28;20400;-66
2023/10/17 09:12:21;;;;;;;;;;;7.90;82.80;;;;;;5044928;28;20195;-67
2023/10/17 09:14:56;;;;;;;;;;;8.00;82.50;;;;;;5050556;28;20011;-68
2023/10/17 09:17:30;;;;;;;;;;;8.10;82.50;;;;;;5044386;28;19935;-66
2023/10/17 09:20:11;;;;;;;;;;;8.10;82.40;;;;;;5057666;28;19981;-66
2023/10/17 09:22:54;;;;;;;;;;;8.20;82.50;;;;;;5054119;28;19924;-67
2023/10/17 09:25:27;;;;;;;;;;;8.20;82.30;;;;;;5051260;28;19935;-65
2023/10/17 09:28:04;;;;;;;;;;;8.30;82.20;;;;;;5044959;28;19936;-66
2023/10/17 09:30:43;;;;;;;;;;;8.40;81.80;;;;;;5057107;28;19924;-65
2023/10/17 09:33:27;;;;;;;;;;;8.40;81.50;;;;;;5063416;28;19928;-66
2023/10/17 09:36:03;;;;;;;;;;;8.50;81.50;;;;;;5060813;28;19929;-66
2023/10/17 09:38:41;;;;;;;;;;;8.60;81.40;;;;;;5062303;28;19928;-67
2023/10/17 09:41:17;;;;;;;;;;;8.70;81.40;;;;;;5058407;28;19947;-66
2023/10/17 09:43:53;;;;;;;;;;;8.70;81.20;;;;;;5060565;28;19924;-72
2023/10/17 09:46:28;;;;;;;;;;;8.70;80.90;;;;;;5058844;28;19940;-70
2023/10/17 09:49:02;;;;;;;;;;;8.70;80.60;;;;;;5029965;28;19934;-70
2023/10/17 09:51:36;;;;;;;;;;;8.80;80.50;;;;;;5055313;28;19928;-70
2023/10/17 09:54:04;;;;;;;;;;;8.90;80.40;;;;;;5057144;28;19925;-70
2023/10/17 09:56:39;;;;;;;;;;;8.90;80.30;;;;;;5062456;28;19924;-71
2023/10/17 09:59:17;;;;;;;;;;;8.90;80.40;;;;;;5057281;28;19924;-71
2023/10/17 10:01:52;;;;;;;;;;;8.90;80.30;;;;;;5057430;28;19925;-70
2023/10/17 10:04:28;;;;;;;;;;;9.00;80.00;;;;;;5060505;28;19929;-71
2023/10/17 10:07:22;;;;;;;;;;;9.00;80.10;;;;;;5054032;28;19929;-69
2023/10/17 10:09:55;;;;;;;;;;;9.10;80.10;;;;;;5053736;28;19929;-70
2023/10/17 10:12:48;;;;;;;;;;;9.10;80.20;;;;;;5057984;28;20335;-70
2023/10/17 10:15:36;;;;;;;;;;;9.20;80.00;;;;;;5055700;28;19929;-71
2023/10/17 10:18:12;;;;;;;;;;;9.30;79.90;;;;;;5057499;28;19929;-70
2023/10/17 10:20:55;;;;;;;;;;;9.40;79.80;;;;;;5056628;28;19932;-70
2023/10/17 10:23:34;;;;;;;;;;;9.40;79.30;;;;;;5060868;28;19924;-70
2023/10/17 10:26:17;;;;;;;;;;;9.50;79.30;;;;;;5054540;28;20024;-72
2023/10/17 10:28:51;;;;;;;;;;;9.50;79.00;;;;;;5055587;28;20321;-71
2023/10/17 10:31:38;;;;;;;;;;;9.50;78.70;;;;;;5058385;28;19974;-70
2023/10/17 10:34:13;;;;;;;;;;;9.60;78.70;;;;;;5058961;28;20007;-69
2023/10/17 10:36:47;;;;;;;;;;;9.60;78.70;;;;;;5054691;28;19928;-71
2023/10/17 10:39:20;;;;;;;;;;;9.60;78.70;;;;;;5049899;28;19974;-70
2023/10/17 10:41:57;;;;;;;;;;;9.60;78.70;;;;;;5055510;28;20011;-70
2023/10/17 10:44:39;;;;;;;;;;;9.60;78.80;;;;;;5061117;28;19929;-69
2023/10/17 10:47:13;;;;;;;;;;;9.60;78.60;;;;;;5059073;28;19929;-72
2023/10/17 10:49:49;;;;;;;;;;;9.60;78.50;;;;;;5060584;28;19928;-71
2023/10/17 10:52:24;;;;;;;;;;;9.60;78.60;;;;;;5061446;28;20029;-71
2023/10/17 10:54:59;;;;;;;;;;;9.60;78.70;;;;;;5054363;28;19928;-63
2023/10/17 10:57:34;;;;;;;;;;;9.50;78.60;;;;;;5059149;28;20022;-62
2023/10/17 11:00:09;;;;;;;;;;;9.50;78.60;;;;;;5060890;28;20383;-63
2023/10/17 11:02:43;;;;;;;;;;;9.60;78.70;;;;;;5061892;28;20042;-64
2023/10/17 11:05:18;;;;;;;;;;;9.60;78.70;;;;;;5060963;28;19977;-63
2023/10/17 11:07:59;;;;;;;;;;;9.60;78.70;;;;;;5056577;28;19928;-65
2023/10/17 11:10:31;;;;;;;;;;;9.60;78.80;;;;;;5049640;28;19928;-64
2023/10/17 11:13:06;;;;;;;;;;;9.60;78.80;;;;;;5053988;28;19929;-63
2023/10/17 11:15:40;;;;;;;;;;;9.60;78.70;;;;;;5059522;28;19979;-63
2023/10/17 11:18:15;;;;;;;;;;;9.60;78.70;;;;;;5059018;28;19928;-65
2023/10/17 11:20:54;;;;;;;;;;;9.70;78.50;;;;;;5058671;28;19929;-63
2023/10/17 11:23:27;;;;;;;;;;;9.90;78.40;;;;;;5058035;28;19929;-62
2023/10/17 11:26:01;;;;;;;;;;;9.90;78.20;;;;;;5057692;28;19925;-63
2023/10/17 11:28:36;;;;;;;;;;;9.90;78.20;;;;;;5022539;28;19932;-64
2023/10/17 11:31:12;;;;;;;;;;;10.00;78.30;;;;;;5055693;28;19986;-62
2023/10/17 11:33:47;;;;;;;;;;;10.10;78.10;;;;;;5045589;28;20443;-62
2023/10/17 11:36:19;;;;;;;;;;;10.20;77.70;;;;;;5051001;28;19925;-62
2023/10/17 11:38:56;;;;;;;;;;;10.30;77.50;;;;;;5043546;28;19937;-62
2023/10/17 11:41:31;;;;;;;;;;;10.30;77.00;;;;;;5047123;28;23667;-63
2023/10/17 11:44:05;;;;;;;;;;;10.30;76.10;;;;;;5054127;28;20308;-61
2023/10/17 11:46:38;;;;;;;;;;;10.40;75.30;;;;;;5052075;28;20001;-63
2023/10/17 11:49:20;;;;;;;;;;;10.50;75.50;;;;;;5054974;28;19929;-63
2023/10/17 11:52:00;;;;;;;;;;;10.50;75.20;;;;;;5047454;28;19939;-62
2023/10/17 11:54:33;;;;;;;;;;;10.50;75.00;;;;;;5053881;28;19932;-60
2023/10/17 11:57:11;;;;;;;;;;;10.60;75.20;;;;;;5050099;28;19975;-62
2023/10/17 11:59:54;;;;;;;;;;;10.60;74.00;;;;;;5053956;28;19975;-62
2023/10/17 12:02:29;;;;;;;;;;;10.60;73.10;;;;;;5050560;28;20372;-63
2023/10/17 12:05:05;;;;;;;;;;;10.60;72.60;;;;;;5052932;28;19939;-62
2023/10/17 12:07:42;;;;;;;;;;;10.60;73.20;;;;;;5053872;28;20387;-62
2023/10/17 12:10:16;;;;;;;;;;;10.60;72.20;;;;;;5053290;28;19925;-62
2023/10/17 12:12:51;;;;;;;;;;;10.60;72.30;;;;;;5053934;28;19924;-62
2023/10/17 12:15:24;;;;;;;;;;;10.60;72.60;;;;;;5052099;28;20304;-62
2023/10/17 12:17:57;;;;;;;;;;;10.60;72.10;;;;;;5050303;28;22325;-62
2023/10/17 12:20:30;;;;;;;;;;;10.60;72.20;;;;;;5056577;28;19931;-62
2023/10/17 12:23:08;;;;;;;;;;;10.70;72.20;;;;;;5056350;28;19924;-62
2023/10/17 12:25:42;;;;;;;;;;;10.60;72.20;;;;;;5057165;28;19933;-63
2023/10/17 12:28:16;;;;;;;;;;;10.60;71.80;;;;;;5053774;28;20027;-63
2023/10/17 12:30:49;;;;;;;;;;;10.60;72.20;;;;;;5058205;28;19935;-65
2023/10/17 12:33:23;;;;;;;;;;;10.60;72.30;;;;;;5058533;28;19934;-61
2023/10/17 12:35:58;;;;;;;;;;;10.70;72.20;;;;;;5054477;28;19924;-62
2023/10/17 12:38:36;;;;;;;;;;;10.60;71.80;;;;;;5050376;28;19933;-61
2023/10/17 12:41:08;;;;;;;;;;;10.70;71.30;;;;;;5057409;28;20300;-63
2023/10/17 12:43:42;;;;;;;;;;;10.70;71.50;;;;;;5054247;28;19933;-62
2023/10/17 12:46:15;;;;;;;;;;;10.70;71.30;;;;;;5053279;28;19929;-63
2023/10/17 12:48:48;;;;;;;;;;;10.70;71.90;;;;;;5056479;28;19928;-62
2023/10/17 12:51:23;;;;;;;;;;;10.70;71.40;;;;;;5053126;28;19924;-62
2023/10/17 12:53:57;;;;;;;;;;;10.70;71.30;;;;;;5050805;28;19934;-62
2023/10/17 12:56:31;;;;;;;;;;;10.70;71.60;;;;;;5060885;28;20330;-62
2023/10/17 12:59:04;;;;;;;;;;;10.70;71.60;;;;;;5042045;28;19929;-62
2023/10/17 13:01:40;;;;;;;;;;;10.60;71.30;;;;;;5058376;28;20400;-62
2023/10/17 13:04:13;;;;;;;;;;;10.70;71.20;;;;;;5054574;28;19935;-62
2023/10/17 13:06:48;;;;;;;;;;;10.70;70.90;;;;;;5057864;28;19934;-61
2023/10/17 13:09:16;;;;;;;;;;;10.70;71.00;;;;;;5058495;28;19939;-61
2023/10/17 13:11:51;;;;;;;;;;;10.70;71.10;;;;;;5059022;28;19929;-62
2023/10/17 13:14:24;;;;;;;;;;;10.70;69.50;;;;;;5057099;28;19929;-69
2023/10/17 13:16:58;;;;;;;;;;;10.70;69.20;;;;;;5053500;28;19933;-72
2023/10/17 13:19:35;;;;;;;;;;;10.70;69.50;;;;;;5051315;28;19924;-68
2023/10/17 13:22:14;;;;;;;;;;;10.70;69.40;;;;;;5056327;28;19929;-69
2023/10/17 13:24:50;;;;;;;;;;;10.70;69.80;;;;;;5057083;28;19958;-69
2023/10/17 13:27:23;;;;;;;;;;;10.70;69.40;;;;;;5057595;28;19929;-70
2023/10/17 13:29:56;;;;;;;;;;;10.70;69.70;;;;;;5063230;28;19936;-70
2023/10/17 13:32:31;;;;;;;;;;;10.70;69.90;;;;;;5061525;28;20451;-70
2023/10/17 13:35:04;;;;;;;;;;;10.70;69.20;;;;;;5062624;28;19924;-70
2023/10/17 13:37:51;;;;;;;;;;;10.70;69.60;;;;;;5060436;28;19939;-70
2023/10/17 13:40:25;;;;;;;;;;;10.70;70.60;;;;;;5058957;28;19930;-70
2023/10/17 13:43:00;;;;;;;;;;;10.70;70.40;;;;;;5054982;28;19978;-71
2023/10/17 13:45:41;;;;;;;;;;;10.70;70.40;;;;;;5048698;28;19925;-72
2023/10/17 13:48:13;;;;;;;;;;;10.70;69.50;;;;;;5059174;28;20012;-70
2023/10/17 13:50:47;;;;;;;;;;;10.80;68.00;;;;;;5059683;28;20371;-71
2023/10/17 13:53:21;;;;;;;;;;;10.80;68.80;;;;;;5059899;28;19925;-70
2023/10/17 13:55:56;;;;;;;;;;;10.80;68.90;;;;;;5058899;28;20968;-70
2023/10/17 13:58:30;;;;;;;;;;;10.80;69.40;;;;;;5060572;28;19928;-71
2023/10/17 14:01:27;;;;;;;;;;;10.80;68.90;;;;;;5061182;28;20015;-70
2023/10/17 14:04:10;;;;;;;;;;;10.80;69.00;;;;;;5055040;28;19924;-69
2023/10/17 14:06:48;;;;;;;;;;;10.80;69.40;;;;;;5060849;28;19924;-70
2023/10/17 14:09:23;;;;;;;;;;;10.80;69.30;;;;;;5020745;28;19955;-70
2023/10/17 14:11:58;;;;;;;;;;;10.80;69.50;;;;;;5061435;28;19932;-70
2023/10/17 14:14:30;;;;;;;;;;;10.80;69.20;;;;;;5062871;28;20375;-70
2023/10/17 14:17:07;;;;;;;;;;;10.80;68.60;;;;;;5050853;28;19933;-70
2023/10/17 14:19:44;;;;;;;;;;;10.80;68.80;;;;;;5062653;28;20019;-70
2023/10/17 14:22:38;;;;;;;;;;;10.80;68.70;;;;;;5062978;28;19929;-70
2023/10/17 14:26:00;;;;;;;;;;;10.80;68.60;;;;;;5060367;28;19928;-71
2023/10/17 14:28:21;;;;;;;;;;;10.80;69.00;;;;;;5061966;28;20038;-69
2023/10/17 14:30:55;;;;;;;;;;;10.90;68.50;;;;;;5063418;28;19925;-69
2023/10/17 14:33:28;;;;;;;;;;;10.80;68.10;;;;;;5060705;28;19932;-70
2023/10/17 14:36:09;;;;;;;;;;;10.80;68.20;;;;;;5064565;28;20383;-70
2023/10/17 14:38:45;;;;;;;;;;;10.80;68.10;;;;;;5055029;28;19931;-69
2023/10/17 14:41:19;;;;;;;;;;;10.80;68.50;;;;;;5048074;28;19924;-70
2023/10/17 14:43:54;;;;;;;;;;;10.70;67.30;;;;;;5058579;28;19925;-71
2023/10/17 14:46:28;;;;;;;;;;;10.80;68.00;;;;;;5055384;28;19978;-70
2023/10/17 14:49:02;;;;;;;;;;;10.80;68.20;;;;;;5060574;28;20375;-70
2023/10/17 14:51:36;;;;;;;;;;;10.80;68.60;;;;;;5060938;28;19982;-69
2023/10/17 14:54:09;;;;;;;;;;;10.80;67.00;;;;;;5056908;28;19929;-71
2023/10/17 14:56:43;;;;;;;;;;;10.80;67.60;;;;;;5044611;28;19928;-68
2023/10/17 14:59:18;;;;;;;;;;;10.80;68.40;;;;;;5045826;28;19929;-72
2023/10/17 15:01:52;;;;;;;;;;;10.80;67.60;;;;;;5056497;28;19956;-70
2023/10/17 15:04:25;;;;;;;;;;;10.70;68.40;;;;;;5060574;28;19932;-70
2023/10/17 15:06:58;;;;;;;;;;;10.80;68.60;;;;;;5053685;28;19932;-71
2023/10/17 15:09:34;;;;;;;;;;;10.70;67.60;;;;;;5057842;28;19928;-70
2023/10/17 15:12:08;;;;;;;;;;;10.70;68.00;;;;;;5050321;28;19970;-69
2023/10/17 15:14:44;;;;;;;;;;;10.70;68.60;;;;;;5057658;28;19932;-70
2023/10/17 15:17:18;;;;;;;;;;;10.70;68.90;;;;;;5057074;28;20399;-69
2023/10/17 15:19:51;;;;;;;;;;;10.70;68.90;;;;;;5057070;28;19935;-70
2023/10/17 15:22:24;;;;;;;;;;;10.70;68.90;;;;;;5047911;28;19931;-70
2023/10/17 15:24:58;;;;;;;;;;;10.70;69.10;;;;;;5059938;28;19925;-70
2023/10/17 15:27:32;;;;;;;;;;;10.70;68.90;;;;;;5052438;28;19928;-69
2023/10/17 15:30:08;;;;;;;;;;;10.60;69.40;;;;;;5053736;28;19950;-71
2023/10/17 15:32:41;;;;;;;;;;;10.60;69.70;;;;;;5039192;28;19929;-70
2023/10/17 15:35:15;;;;;;;;;;;10.60;69.50;;;;;;5058897;28;19943;-69
2023/10/17 15:37:48;;;;;;;;;;;10.60;69.80;;;;;;5046809;28;20020;-70
2023/10/17 15:40:19;;;;;;;;;;;10.60;69.60;;;;;;5046374;28;20396;-70
2023/10/17 15:42:53;;;;;;;;;;;10.60;69.70;;;;;;5052257;28;19925;-70
2023/10/17 15:45:27;;;;;;;;;;;10.50;69.80;;;;;;5058760;28;19931;-70
2023/10/17 15:48:01;;;;;;;;;;;10.50;69.90;;;;;;5058814;28;19936;-70
2023/10/17 15:50:35;;;;;;;;;;;10.40;70.20;;;;;;5053065;28;19928;-69
2023/10/17 15:53:09;;;;;;;;;;;10.40;70.30;;;;;;5057482;28;19924;-69
2023/10/17 15:55:50;;;;;;;;;;;10.40;70.50;;;;;;5041753;28;19963;-69
2023/10/17 15:58:25;;;;;;;;;;;10.40;70.50;;;;;;5056200;28;20380;-69
2023/10/17 16:01:01;;;;;;;;;;;10.30;70.80;;;;;;5055039;28;20092;-70
2023/10/17 16:03:35;;;;;;;;;;;10.30;70.90;;;;;;5053074;28;20291;-70
2023/10/17 16:06:09;;;;;;;;;;;10.20;71.20;;;;;;5047313;28;21196;-69
2023/10/17 16:08:44;;;;;;;;;;;10.20;71.30;;;;;;5053763;28;19963;-68
2023/10/17 16:11:19;;;;;;;;;;;10.20;71.40;;;;;;5043113;28;19947;-68
2023/10/17 16:13:53;;;;;;;;;;;10.20;71.50;;;;;;5060628;28;20011;-68
2023/10/17 16:16:27;;;;;;;;;;;10.10;71.70;;;;;;5052373;28;19925;-68
2023/10/17 16:19:01;;;;;;;;;;;10.10;71.80;;;;;;5040261;28;19940;-68
2023/10/17 16:21:35;;;;;;;;;;;10.10;72.00;;;;;;5056583;28;19925;-68
2023/10/17 16:24:08;;;;;;;;;;;10.00;72.20;;;;;;5057055;28;19929;-68
2023/10/17 16:26:41;;;;;;;;;;;9.90;72.40;;;;;;5059470;28;19932;-68
2023/10/17 16:29:14;;;;;;;;;;;9.90;72.70;;;;;;5058838;28;19928;-68
2023/10/17 16:31:50;;;;;;;;;;;9.80;72.90;;;;;;5057970;28;19931;-69
2023/10/17 16:34:16;;;;;;;;;;;9.70;73.40;;;;;;5057043;28;19935;-68
2023/10/17 16:36:50;;;;;;;;;;;9.70;73.90;;;;;;5060053;28;19942;-68
2023/10/17 16:39:23;;;;;;;;;;;9.60;74.60;;;;;;5057969;28;19928;-68
2023/10/17 16:41:56;;;;;;;;;;;9.60;75.10;;;;;;5059455;28;19928;-69
2023/10/17 16:44:30;;;;;;;;;;;9.50;75.50;;;;;;5059454;28;19929;-70
2023/10/17 16:47:04;;;;;;;;;;;9.50;75.70;;;;;;5058697;28;19930;-70